Time;durP1;ratioP1;P1;durP2;ratioP2;P2;SDS_P1;SDS_P2;PMS_P1;PMS_P2;Temp;Humidity;BMP_temperature;BMP_pressure;BME280_temperature;BME280_humidity;BME280_pressure;Samples;Min_cycle;Max_cycle;Signal;HPM_P1;HPM_P2
2022/11/27 00:00:00;;;;;;;0.52;0.47;;;5.70;92.60;;;;;;5077012;28;20044;-76
2022/11/27 00:02:26;;;;;;;0.82;0.55;;;5.70;92.50;;;;;;5094731;28;20044;-76
2022/11/27 00:04:51;;;;;;;0.90;0.52;;;5.70;92.50;;;;;;5094089;28;20126;-76
2022/11/27 00:07:17;;;;;;;0.57;0.30;;;5.70;92.50;;;;;;5077216;28;20046;-76
2022/11/27 00:09:43;;;;;;;1.40;0.50;;;5.60;92.50;;;;;;5112517;28;20035;-76
2022/11/27 00:12:08;;;;;;;0.80;0.60;;;5.60;92.60;;;;;;5112823;28;20035;-76
2022/11/27 00:14:34;;;;;;;0.73;0.50;;;5.60;92.60;;;;;;5112421;28;20115;-76
2022/11/27 00:16:59;;;;;;;0.50;0.50;;;5.60;92.60;;;;;;5112384;28;20479;-76
2022/11/27 00:19:25;;;;;;;0.63;0.32;;;5.50;92.60;;;;;;5093984;28;20963;-76
2022/11/27 00:21:51;;;;;;;0.25;0.25;;;5.50;92.60;;;;;;5093761;28;20144;-76
2022/11/27 00:24:16;;;;;;;1.77;0.45;;;5.50;92.60;;;;;;5091991;28;20449;-76
2022/11/27 00:26:42;;;;;;;0.95;0.60;;;5.50;92.60;;;;;;5093888;28;20495;-76
2022/11/27 00:29:08;;;;;;;0.63;0.40;;;5.40;92.60;;;;;;5112028;28;20118;-76
2022/11/27 00:31:36;;;;;;;0.60;0.40;;;5.50;92.60;;;;;;5112148;28;20035;-76
2022/11/27 00:34:04;;;;;;;0.60;0.40;;;5.50;92.60;;;;;;5111905;28;20499;-76
2022/11/27 00:36:31;;;;;;;0.98;0.68;;;5.50;92.60;;;;;;5111749;28;20457;-76
2022/11/27 00:38:56;;;;;;;1.15;0.50;;;5.50;92.50;;;;;;5112351;28;20506;-76
2022/11/27 00:41:24;;;;;;;0.50;0.45;;;5.50;92.50;;;;;;5112282;28;20039;-76
2022/11/27 00:43:50;;;;;;;0.40;0.38;;;5.50;92.50;;;;;;5112036;28;20130;-76
2022/11/27 00:46:18;;;;;;;1.00;0.40;;;5.50;92.50;;;;;;5112366;28;20047;-76
2022/11/27 00:48:44;;;;;;;0.40;0.40;;;5.50;92.50;;;;;;5093997;28;20793;-76
2022/11/27 00:51:12;;;;;;;0.88;0.50;;;5.50;92.50;;;;;;5112264;28;20099;-76
2022/11/27 00:53:38;;;;;;;0.70;0.50;;;5.50;92.50;;;;;;5093530;28;20040;-76
2022/11/27 00:56:05;;;;;;;0.68;0.40;;;5.50;92.50;;;;;;5093694;28;20074;-76
2022/11/27 00:58:30;;;;;;;1.65;0.50;;;5.50;92.50;;;;;;5112302;28;20044;-76
2022/11/27 01:00:58;;;;;;;1.40;0.65;;;5.40;92.40;;;;;;5076796;28;20051;-76
2022/11/27 01:03:25;;;;;;;0.60;0.60;;;5.50;92.70;;;;;;5112384;28;20044;-76
2022/11/27 01:05:51;;;;;;;0.75;0.68;;;5.40;92.40;;;;;;5111827;28;20032;-76
2022/11/27 01:08:18;;;;;;;0.85;0.70;;;5.50;92.40;;;;;;5093254;28;20051;-76
2022/11/27 01:10:52;;;;;;;1.60;0.60;;;5.50;92.40;;;;;;5093562;28;20392;-76
2022/11/27 01:13:18;;;;;;;1.25;0.73;;;5.50;92.40;;;;;;5115477;28;20049;-76
2022/11/27 01:15:45;;;;;;;2.05;0.82;;;5.50;92.40;;;;;;5115665;28;20043;-76
2022/11/27 01:18:10;;;;;;;1.17;0.70;;;5.50;92.40;;;;;;5096820;28;20044;-76
2022/11/27 01:20:39;;;;;;;0.50;0.50;;;5.40;92.30;;;;;;5115021;28;20042;-76
2022/11/27 01:23:06;;;;;;;0.65;0.50;;;5.50;92.30;;;;;;5096769;28;20106;-76
2022/11/27 01:25:34;;;;;;;0.90;0.57;;;5.40;92.30;;;;;;5096661;28;20035;-76
2022/11/27 01:28:00;;;;;;;0.88;0.70;;;5.40;92.40;;;;;;5096843;28;20040;-75
2022/11/27 01:30:25;;;;;;;0.85;0.70;;;5.40;92.30;;;;;;5080363;28;20434;-76
2022/11/27 01:32:51;;;;;;;1.75;0.73;;;5.40;92.40;;;;;;5115030;28;20046;-75
2022/11/27 01:35:17;;;;;;;0.77;0.60;;;5.40;92.40;;;;;;5114750;28;20065;-76
2022/11/27 01:37:42;;;;;;;1.05;0.73;;;5.30;92.40;;;;;;5115368;28;20496;-75
2022/11/27 01:40:08;;;;;;;0.70;0.70;;;5.30;92.40;;;;;;5096403;28;20047;-75
2022/11/27 01:42:34;;;;;;;1.00;0.60;;;5.30;92.40;;;;;;5096610;28;20047;-76
2022/11/27 01:44:59;;;;;;;0.60;0.60;;;5.20;92.40;;;;;;5096411;28;20567;-76
2022/11/27 01:47:31;;;;;;;0.93;0.60;;;5.20;92.40;;;;;;5114599;28;20544;-76
2022/11/27 01:50:05;;;;;;;1.17;0.60;;;5.20;92.40;;;;;;5114654;28;20491;-76
2022/11/27 01:52:34;;;;;;;0.85;0.63;;;5.20;92.40;;;;;;5079790;28;20126;-76
2022/11/27 01:55:06;;;;;;;1.27;0.60;;;5.20;92.50;;;;;;5114508;28;20138;-78
2022/11/27 01:57:39;;;;;;;0.40;0.40;;;5.10;92.80;;;;;;5063063;28;20497;-78
2022/11/27 02:00:07;;;;;;;0.95;0.40;;;5.10;92.50;;;;;;5096276;28;20063;-78
2022/11/27 02:02:33;;;;;;;1.75;0.60;;;5.10;92.80;;;;;;5096362;28;20612;-77
2022/11/27 02:04:59;;;;;;;0.70;0.60;;;5.00;92.50;;;;;;5079303;28;20047;-78
2022/11/27 02:07:24;;;;;;;2.20;0.70;;;5.10;92.50;;;;;;5095982;28;20047;-77
2022/11/27 02:09:50;;;;;;;1.95;0.90;;;5.10;92.50;;;;;;5114204;28;20040;-77
2022/11/27 02:12:32;;;;;;;0.55;0.50;;;5.20;92.50;;;;;;5095994;28;20134;-77
2022/11/27 02:15:05;;;;;;;;;;;5.00;92.50;;;;;;5114449;28;20046;-77
2022/11/27 02:18:06;;;;;;;1.33;0.85;;;5.10;92.50;;;;;;5114104;28;19917;-77
2022/11/27 02:20:44;;;;;;;1.05;0.73;;;5.10;92.40;;;;;;5101321;28;20437;-77
2022/11/27 02:23:40;;;;;;;1.20;0.60;;;5.10;92.50;;;;;;5114041;28;20444;-77
2022/11/27 02:26:40;;;;;;;0.75;0.60;;;5.00;92.40;;;;;;5094688;28;20055;-77
2022/11/27 02:29:09;;;;;;;1.17;0.57;;;5.10;92.40;;;;;;5100707;28;20498;-77
2022/11/27 02:32:01;;;;;;;1.35;0.68;;;5.00;92.40;;;;;;5113988;28;20058;-78
2022/11/27 02:35:00;;;;;;;1.15;0.70;;;5.00;92.40;;;;;;5095559;28;20488;-77
2022/11/27 02:37:41;;;;;;;1.50;0.73;;;5.00;92.40;;;;;;5095496;28;20050;-78
2022/11/27 02:40:16;;;;;;;0.80;0.52;;;5.00;92.40;;;;;;5113847;28;20080;-77
2022/11/27 02:42:49;;;;;;;1.05;0.70;;;5.00;92.40;;;;;;5113677;28;20036;-77
2022/11/27 02:45:21;;;;;;;1.02;0.60;;;4.90;92.40;;;;;;5079078;28;20083;-77
2022/11/27 02:47:49;;;;;;;0.77;0.73;;;4.90;92.40;;;;;;5095476;28;20066;-77
2022/11/27 02:50:20;;;;;;;0.50;0.50;;;4.90;92.40;;;;;;5078520;28;20035;-78
2022/11/27 02:52:49;;;;;;;0.52;0.40;;;4.80;92.40;;;;;;5093860;28;20536;-78
2022/11/27 02:55:19;;;;;;;1.02;0.57;;;4.90;92.40;;;;;;5095177;28;20040;-78
2022/11/27 02:57:45;;;;;;;1.42;0.70;;;4.80;92.40;;;;;;5113741;28;20043;-77
2022/11/27 03:00:11;;;;;;;0.43;0.43;;;4.80;92.40;;;;;;5078327;28;20406;-78
2022/11/27 03:02:44;;;;;;;0.80;0.45;;;4.80;92.50;;;;;;5113266;28;20040;-77
2022/11/27 03:05:15;;;;;;;0.55;0.40;;;4.80;92.50;;;;;;5113795;28;20032;-78
2022/11/27 03:07:51;;;;;;;0.95;0.55;;;4.90;92.50;;;;;;5095477;28;20040;-77
2022/11/27 03:10:21;;;;;;;0.60;0.50;;;4.90;92.50;;;;;;5113265;28;20063;-77
2022/11/27 03:12:48;;;;;;;1.33;0.50;;;4.90;92.50;;;;;;5094798;28;20039;-77
2022/11/27 03:15:14;;;;;;;1.42;0.57;;;4.90;92.40;;;;;;5113104;28;20035;-77
2022/11/27 03:17:57;;;;;;;0.57;0.47;;;4.90;92.40;;;;;;5094702;28;20398;-78
2022/11/27 03:20:27;;;;;;;0.52;0.40;;;5.00;92.50;;;;;;5113120;28;20068;-78
2022/11/27 03:22:54;;;;;;;0.50;0.50;;;5.00;92.50;;;;;;5094858;28;20050;-78
2022/11/27 03:25:21;;;;;;;0.98;0.50;;;5.00;92.40;;;;;;5095198;28;20088;-77
2022/11/27 03:27:54;;;;;;;0.75;0.73;;;5.00;92.30;;;;;;5113062;28;20035;-78
2022/11/27 03:30:20;;;;;;;0.60;0.30;;;5.00;92.30;;;;;;5112929;28;20097;-77
2022/11/27 03:32:46;;;;;;;0.88;0.40;;;5.00;92.30;;;;;;5112597;28;20449;-77
2022/11/27 03:35:15;;;;;;;0.40;0.40;;;5.10;92.30;;;;;;5093963;28;20523;-77
2022/11/27 03:37:41;;;;;;;0.45;0.30;;;5.10;92.30;;;;;;5112672;28;20046;-77
2022/11/27 03:40:08;;;;;;;0.82;0.50;;;5.10;92.20;;;;;;5094230;28;20111;-78
2022/11/27 03:42:54;;;;;;;0.60;0.40;;;5.20;92.20;;;;;;5112892;28;20134;-77
2022/11/27 03:45:55;;;;;;;0.90;0.43;;;5.20;92.20;;;;;;5112651;28;20067;-77
2022/11/27 03:48:35;;;;;;;0.50;0.30;;;5.20;92.20;;;;;;5112764;28;20043;-78
2022/11/27 03:51:22;;;;;;;0.65;0.50;;;5.30;92.20;;;;;;5112722;28;20051;-77
2022/11/27 03:54:11;;;;;;;1.00;0.60;;;5.30;92.10;;;;;;5112580;28;20051;-77
2022/11/27 03:56:41;;;;;;;0.40;0.40;;;5.30;92.10;;;;;;5061700;28;20039;-77
2022/11/27 03:59:13;;;;;;;0.57;0.47;;;5.30;92.10;;;;;;5077666;28;20189;-78
2022/11/27 04:01:39;;;;;;;1.33;0.60;;;5.30;92.10;;;;;;5112578;28;20488;-77
2022/11/27 04:04:06;;;;;;;2.10;0.70;;;5.30;92.10;;;;;;5112610;28;20058;-78
2022/11/27 04:06:31;;;;;;;0.73;0.43;;;5.50;92.10;;;;;;5112492;28;20035;-77
2022/11/27 04:08:57;;;;;;;0.73;0.60;;;5.40;92.10;;;;;;5112748;28;20036;-77
2022/11/27 04:11:22;;;;;;;0.60;0.50;;;5.50;92.10;;;;;;5094034;28;20035;-77
2022/11/27 04:13:51;;;;;;;1.83;0.40;;;5.50;92.10;;;;;;5112262;28;20072;-77
2022/11/27 04:16:17;;;;;;;0.40;0.40;;;5.40;92.00;;;;;;5094425;28;20043;-77
2022/11/27 04:18:42;;;;;;;0.65;0.40;;;5.40;92.00;;;;;;5077104;28;20035;-77
2022/11/27 04:21:08;;;;;;;0.57;0.40;;;5.40;92.30;;;;;;5112794;28;20104;-77
2022/11/27 04:23:36;;;;;;;0.60;0.40;;;5.50;92.00;;;;;;5094121;28;20372;-78
2022/11/27 04:26:02;;;;;;;0.20;0.20;;;5.50;92.00;;;;;;5112445;28;20039;-78
2022/11/27 04:28:27;;;;;;;0.38;0.35;;;5.50;92.00;;;;;;5112753;28;20419;-78
2022/11/27 04:30:53;;;;;;;0.93;0.40;;;5.50;92.00;;;;;;5112230;28;20039;-78
2022/11/27 04:33:19;;;;;;;0.95;0.60;;;5.50;91.90;;;;;;5094537;28;20044;-78
2022/11/27 04:35:45;;;;;;;0.70;0.50;;;5.60;92.00;;;;;;5112782;28;20044;-77
2022/11/27 04:38:11;;;;;;;0.85;0.60;;;5.60;92.00;;;;;;5094462;28;20092;-78
2022/11/27 04:40:36;;;;;;;0.98;0.38;;;5.60;92.00;;;;;;5112060;28;20048;-78
2022/11/27 04:43:02;;;;;;;1.27;0.65;;;5.60;92.00;;;;;;5093762;28;20035;-77
2022/11/27 04:45:27;;;;;;;0.55;0.50;;;5.70;92.00;;;;;;5113333;28;20394;-78
2022/11/27 04:47:53;;;;;;;1.23;0.50;;;5.60;91.90;;;;;;5097573;28;20036;-78
2022/11/27 04:50:19;;;;;;;0.70;0.43;;;5.60;91.90;;;;;;5116075;28;20122;-77
2022/11/27 04:52:44;;;;;;;0.40;0.40;;;5.70;92.00;;;;;;5097469;28;20096;-78
2022/11/27 04:55:10;;;;;;;1.67;0.40;;;5.70;91.90;;;;;;5080347;28;20043;-78
2022/11/27 04:57:36;;;;;;;0.50;0.40;;;5.70;92.10;;;;;;5115395;28;20444;-78
2022/11/27 05:00:03;;;;;;;1.00;0.40;;;5.60;91.90;;;;;;5097327;28;20043;-77
2022/11/27 05:02:29;;;;;;;0.95;0.65;;;5.70;91.90;;;;;;5095495;28;20101;-77
2022/11/27 05:04:54;;;;;;;1.65;0.40;;;5.70;91.90;;;;;;5097246;28;20495;-77
2022/11/27 05:07:20;;;;;;;0.55;0.40;;;5.70;91.90;;;;;;5115998;28;20502;-77
2022/11/27 05:09:46;;;;;;;0.68;0.40;;;5.70;91.90;;;;;;5080238;28;20043;-77
2022/11/27 05:12:11;;;;;;;0.57;0.50;;;5.70;91.90;;;;;;5115436;28;20035;-78
2022/11/27 05:14:37;;;;;;;0.63;0.40;;;5.80;92.00;;;;;;5096970;28;20039;-77
2022/11/27 05:17:03;;;;;;;0.40;0.40;;;5.70;91.90;;;;;;5115395;28;20118;-78
2022/11/27 05:19:30;;;;;;;1.27;0.50;;;5.80;92.00;;;;;;5115264;28;20043;-78
2022/11/27 05:21:56;;;;;;;0.40;0.30;;;5.70;92.00;;;;;;5079964;28;20040;-77
2022/11/27 05:24:24;;;;;;;0.77;0.50;;;5.70;92.00;;;;;;5115045;28;20047;-78
2022/11/27 05:26:50;;;;;;;0.55;0.35;;;5.70;92.00;;;;;;5097498;28;20510;-78
2022/11/27 05:29:16;;;;;;;0.65;0.32;;;5.70;92.00;;;;;;5115177;28;20038;-77
2022/11/27 05:31:42;;;;;;;1.15;0.73;;;5.70;92.00;;;;;;5115148;28;20507;-77
2022/11/27 05:34:09;;;;;;;0.40;0.40;;;5.70;92.00;;;;;;5096767;28;20051;-77
2022/11/27 05:36:35;;;;;;;0.60;0.38;;;5.70;92.00;;;;;;5115061;28;20109;-77
2022/11/27 05:39:02;;;;;;;1.98;0.63;;;5.70;91.90;;;;;;5080018;28;20518;-77
2022/11/27 05:41:28;;;;;;;0.30;0.30;;;5.80;92.00;;;;;;5079910;28;20046;-77
2022/11/27 05:43:53;;;;;;;0.98;0.60;;;5.70;91.90;;;;;;5079777;28;20032;-78
2022/11/27 05:46:21;;;;;;;1.77;0.50;;;5.70;91.90;;;;;;5115297;28;20537;-78
2022/11/27 05:48:47;;;;;;;0.60;0.57;;;5.80;91.90;;;;;;5114662;28;20032;-77
2022/11/27 05:51:13;;;;;;;0.65;0.40;;;5.70;91.90;;;;;;5114847;28;20044;-78
2022/11/27 05:53:39;;;;;;;0.73;0.50;;;5.70;91.90;;;;;;5114724;28;20405;-78
2022/11/27 05:56:09;;;;;;;0.50;0.50;;;5.80;91.90;;;;;;5114985;28;20127;-77
2022/11/27 05:58:37;;;;;;;0.57;0.40;;;5.80;91.90;;;;;;5112957;28;20085;-78
2022/11/27 06:01:03;;;;;;;0.50;0.40;;;5.80;91.90;;;;;;5114705;28;20097;-77
2022/11/27 06:03:29;;;;;;;0.40;0.40;;;5.80;91.90;;;;;;5080087;28;20051;-78
2022/11/27 06:05:55;;;;;;;2.40;0.73;;;5.80;91.90;;;;;;5096894;28;20035;-77
2022/11/27 06:08:21;;;;;;;0.85;0.52;;;5.80;91.90;;;;;;5114747;28;20039;-77
2022/11/27 06:10:47;;;;;;;0.93;0.60;;;5.80;91.90;;;;;;5062775;28;20032;-78
2022/11/27 06:13:13;;;;;;;0.40;0.30;;;5.80;91.90;;;;;;5114547;28;20040;-77
2022/11/27 06:15:39;;;;;;;0.88;0.60;;;5.90;91.90;;;;;;5078248;28;20050;-77
2022/11/27 06:18:06;;;;;;;0.77;0.55;;;5.80;91.80;;;;;;5114524;28;20042;-77
2022/11/27 06:20:32;;;;;;;0.63;0.55;;;5.80;91.80;;;;;;5096362;28;20066;-78
2022/11/27 06:22:58;;;;;;;0.50;0.45;;;5.90;91.90;;;;;;5114282;28;20048;-77
2022/11/27 06:25:25;;;;;;;0.73;0.47;;;5.80;91.80;;;;;;5114390;28;20047;-78
2022/11/27 06:27:51;;;;;;;0.52;0.43;;;5.90;91.80;;;;;;5114674;28;20044;-78
2022/11/27 06:30:17;;;;;;;1.08;0.77;;;5.80;91.80;;;;;;5096088;28;20491;-77
2022/11/27 06:32:42;;;;;;;0.55;0.50;;;5.90;91.80;;;;;;5096062;28;20100;-78
2022/11/27 06:35:09;;;;;;;1.27;0.70;;;5.90;91.80;;;;;;5114809;28;20424;-77
2022/11/27 06:37:34;;;;;;;0.60;0.60;;;5.90;91.80;;;;;;5114066;28;20509;-78
2022/11/27 06:40:00;;;;;;;0.65;0.60;;;6.00;91.80;;;;;;5095844;28;20047;-78
2022/11/27 06:42:29;;;;;;;0.60;0.50;;;5.90;91.80;;;;;;5095759;28;20561;-77
2022/11/27 06:44:55;;;;;;;0.25;0.25;;;6.00;91.80;;;;;;5079068;28;20036;-78
2022/11/27 06:47:20;;;;;;;0.57;0.45;;;6.00;91.80;;;;;;5095845;28;20050;-77
2022/11/27 06:49:46;;;;;;;1.65;0.80;;;6.00;91.80;;;;;;5095614;28;20042;-78
2022/11/27 06:52:12;;;;;;;1.17;0.57;;;6.00;91.80;;;;;;5113997;28;20051;-77
2022/11/27 06:54:37;;;;;;;0.70;0.52;;;6.00;91.80;;;;;;5095647;28;20039;-78
2022/11/27 06:57:03;;;;;;;1.42;0.70;;;5.90;91.70;;;;;;5113733;28;20039;-77
2022/11/27 06:59:28;;;;;;;1.25;0.68;;;6.00;91.80;;;;;;5095773;28;20437;-77
2022/11/27 07:01:54;;;;;;;1.38;0.63;;;6.00;91.80;;;;;;5095680;28;20032;-78
2022/11/27 07:04:20;;;;;;;0.90;0.55;;;6.00;91.70;;;;;;5095396;28;20138;-77
2022/11/27 07:06:46;;;;;;;1.02;0.47;;;6.00;91.70;;;;;;5095152;28;20085;-78
2022/11/27 07:09:11;;;;;;;1.20;0.80;;;6.00;91.70;;;;;;5113637;28;20032;-77
2022/11/27 07:11:38;;;;;;;0.95;0.50;;;6.00;91.70;;;;;;5113785;28;20047;-77
2022/11/27 07:14:04;;;;;;;1.50;0.60;;;6.00;91.70;;;;;;5095629;28;20043;-78
2022/11/27 07:16:33;;;;;;;0.93;0.55;;;6.00;91.70;;;;;;5095887;28;20502;-77
2022/11/27 07:19:02;;;;;;;0.70;0.50;;;6.00;91.70;;;;;;5113987;28;20039;-78
2022/11/27 07:21:28;;;;;;;0.75;0.50;;;6.10;91.80;;;;;;5095137;28;20095;-77
2022/11/27 07:23:56;;;;;;;1.08;0.60;;;6.00;91.80;;;;;;5113316;28;20039;-78
2022/11/27 07:26:24;;;;;;;0.43;0.40;;;6.10;91.80;;;;;;5095154;28;20032;-77
2022/11/27 07:28:51;;;;;;;0.93;0.50;;;6.10;91.80;;;;;;5078284;28;20495;-77
2022/11/27 07:31:21;;;;;;;0.57;0.52;;;6.00;91.70;;;;;;5113326;28;20035;-78
2022/11/27 07:33:47;;;;;;;1.08;0.70;;;6.10;91.80;;;;;;5112075;28;20057;-77
2022/11/27 07:36:16;;;;;;;1.50;0.50;;;6.10;91.80;;;;;;5113211;28;20082;-78
2022/11/27 07:38:42;;;;;;;1.52;0.70;;;6.10;91.80;;;;;;5094878;28;20043;-77
2022/11/27 07:41:08;;;;;;;1.08;0.68;;;6.10;91.80;;;;;;5113556;28;20480;-77
2022/11/27 07:43:35;;;;;;;0.82;0.60;;;6.10;91.80;;;;;;5077933;28;20040;-77
2022/11/27 07:46:05;;;;;;;2.28;0.90;;;6.10;91.80;;;;;;5113480;28;20047;-78
2022/11/27 07:48:31;;;;;;;1.17;0.43;;;6.10;91.70;;;;;;5094804;28;20043;-77
2022/11/27 07:50:57;;;;;;;1.52;0.70;;;6.10;91.70;;;;;;5077873;28;20043;-78
2022/11/27 07:53:23;;;;;;;0.93;0.63;;;6.10;91.70;;;;;;5113443;28;20036;-77
2022/11/27 07:55:48;;;;;;;0.65;0.60;;;6.20;91.70;;;;;;5113515;28;20119;-77
2022/11/27 07:58:14;;;;;;;0.95;0.70;;;6.20;91.70;;;;;;5095338;28;20046;-77
2022/11/27 08:00:40;;;;;;;1.35;0.80;;;6.20;91.70;;;;;;5094742;28;20063;-77
2022/11/27 08:03:05;;;;;;;1.27;0.60;;;6.20;91.70;;;;;;5077803;28;20046;-77
2022/11/27 08:05:34;;;;;;;2.10;0.75;;;6.20;91.70;;;;;;5110756;28;20131;-77
2022/11/27 08:08:02;;;;;;;1.45;0.88;;;6.20;91.70;;;;;;5112716;28;20040;-77
2022/11/27 08:10:29;;;;;;;1.13;0.63;;;6.20;91.70;;;;;;5078288;28;20534;-77
2022/11/27 08:12:55;;;;;;;1.48;0.70;;;6.10;91.70;;;;;;5095034;28;20471;-77
2022/11/27 08:15:21;;;;;;;1.38;0.80;;;6.20;91.70;;;;;;5112677;28;20507;-77
2022/11/27 08:17:47;;;;;;;1.73;0.70;;;6.30;91.80;;;;;;5094540;28;20073;-77
2022/11/27 08:20:12;;;;;;;1.90;0.95;;;6.20;91.70;;;;;;5112247;28;20135;-77
2022/11/27 08:22:38;;;;;;;1.42;0.80;;;6.20;91.70;;;;;;5112585;28;20036;-77
2022/11/27 08:25:04;;;;;;;1.45;0.90;;;6.10;91.70;;;;;;5094520;28;20104;-77
2022/11/27 08:27:32;;;;;;;1.98;0.85;;;6.20;91.80;;;;;;5060728;28;20040;-77
2022/11/27 08:29:58;;;;;;;1.77;0.90;;;6.20;91.80;;;;;;5093892;28;20043;-77
2022/11/27 08:32:24;;;;;;;1.60;0.93;;;6.20;91.80;;;;;;5112405;28;20036;-76
2022/11/27 08:34:49;;;;;;;1.25;0.80;;;6.20;91.70;;;;;;5094252;28;20547;-76
2022/11/27 08:37:15;;;;;;;1.40;0.90;;;6.20;91.80;;;;;;5094435;28;20394;-76
2022/11/27 08:39:41;;;;;;;1.77;0.60;;;6.20;91.80;;;;;;5093925;28;20391;-76
2022/11/27 08:42:06;;;;;;;1.52;0.73;;;6.20;91.80;;;;;;5093967;28;20031;-76
2022/11/27 08:44:32;;;;;;;1.67;0.77;;;6.20;91.80;;;;;;5093982;28;20067;-76
2022/11/27 08:46:57;;;;;;;0.95;0.70;;;6.30;91.80;;;;;;5094307;28;20538;-77
2022/11/27 08:49:23;;;;;;;1.15;0.63;;;6.30;91.80;;;;;;5112349;28;20036;-77
2022/11/27 08:51:49;;;;;;;1.23;0.70;;;6.20;91.80;;;;;;5093978;28;20048;-77
2022/11/27 08:54:14;;;;;;;1.38;0.70;;;6.20;91.80;;;;;;5112336;28;20054;-77
2022/11/27 08:56:40;;;;;;;1.90;0.73;;;6.30;91.80;;;;;;5077207;28;20042;-76
2022/11/27 08:59:06;;;;;;;1.20;0.70;;;6.20;91.80;;;;;;5111990;28;20130;-76
2022/11/27 09:01:32;;;;;;;1.42;0.90;;;6.20;91.80;;;;;;5111939;28;20047;-76
2022/11/27 09:03:58;;;;;;;0.65;0.52;;;6.20;91.90;;;;;;5093529;28;20044;-76
2022/11/27 09:06:27;;;;;;;1.73;0.85;;;6.30;91.90;;;;;;5093644;28;20092;-76
2022/11/27 09:08:55;;;;;;;0.75;0.70;;;6.20;91.90;;;;;;5094316;28;20035;-76
2022/11/27 09:11:21;;;;;;;1.48;0.90;;;6.30;91.90;;;;;;5111882;28;20051;-77
2022/11/27 09:13:47;;;;;;;1.30;0.80;;;6.40;91.90;;;;;;5112353;28;20050;-76
2022/11/27 09:16:16;;;;;;;2.40;1.00;;;6.30;91.90;;;;;;5111905;28;20399;-77
2022/11/27 09:18:44;;;;;;;1.33;0.70;;;6.30;91.90;;;;;;5093999;28;20047;-76
2022/11/27 09:21:12;;;;;;;2.70;0.82;;;6.30;91.90;;;;;;5093622;28;20406;-76
2022/11/27 09:23:38;;;;;;;0.77;0.60;;;6.30;91.90;;;;;;5112133;28;20086;-76
2022/11/27 09:26:07;;;;;;;1.38;0.70;;;6.20;91.80;;;;;;5094096;28;20048;-76
2022/11/27 09:28:33;;;;;;;1.02;0.50;;;6.30;91.90;;;;;;5112066;28;20119;-77
2022/11/27 09:31:02;;;;;;;1.38;0.70;;;6.40;91.90;;;;;;5093622;28;20040;-77
2022/11/27 09:33:30;;;;;;;1.25;0.80;;;6.40;91.90;;;;;;5080087;28;20047;-77
2022/11/27 09:35:56;;;;;;;1.38;0.88;;;6.30;91.80;;;;;;5080102;28;20040;-77
2022/11/27 09:38:23;;;;;;;1.13;0.73;;;6.40;91.90;;;;;;5115078;28;20036;-77
2022/11/27 09:40:51;;;;;;;1.55;0.75;;;6.40;91.90;;;;;;5115669;28;20502;-77
2022/11/27 09:43:25;;;;;;;0.73;0.70;;;6.40;91.90;;;;;;5115590;28;20508;-77
2022/11/27 09:45:55;;;;;;;1.92;0.90;;;6.40;91.90;;;;;;5080870;28;20058;-76
2022/11/27 09:48:32;;;;;;;2.35;0.95;;;6.50;91.90;;;;;;5115393;28;20051;-76
2022/11/27 09:51:02;;;;;;;0.57;0.50;;;6.50;91.90;;;;;;5096345;28;20038;-75
2022/11/27 09:53:40;;;;;;;1.88;0.93;;;6.50;91.90;;;;;;5115449;28;20478;-77
2022/11/27 09:56:11;;;;;;;1.15;0.80;;;6.50;91.90;;;;;;5080975;28;20040;-76
2022/11/27 09:58:41;;;;;;;1.55;0.80;;;6.60;91.90;;;;;;5080549;28;20154;-76
2022/11/27 10:01:12;;;;;;;1.15;0.70;;;6.60;91.90;;;;;;5114722;28;20449;-76
2022/11/27 10:03:42;;;;;;;0.95;0.70;;;6.60;91.90;;;;;;5114627;28;20526;-76
2022/11/27 10:06:41;;;;;;;1.05;0.70;;;6.60;91.90;;;;;;5114940;28;20098;-76
2022/11/27 10:09:24;;;;;;;0.57;0.50;;;6.60;91.90;;;;;;5114477;28;20102;-76
2022/11/27 10:12:06;;;;;;;0.88;0.80;;;6.70;91.90;;;;;;5080634;28;20142;-76
2022/11/27 10:14:59;;;;;;;1.33;0.85;;;6.70;91.80;;;;;;5098119;28;20043;-76
2022/11/27 10:17:51;;;;;;;0.68;0.57;;;6.70;91.80;;;;;;5114466;28;20036;-76
2022/11/27 10:20:31;;;;;;;1.17;0.60;;;6.80;91.90;;;;;;5114430;28;20085;-76
2022/11/27 10:23:21;;;;;;;0.88;0.70;;;6.80;91.80;;;;;;5114537;28;20040;-76
2022/11/27 10:25:51;;;;;;;1.20;0.73;;;6.80;91.80;;;;;;5112819;28;20487;-77
2022/11/27 10:28:40;;;;;;;0.75;0.70;;;6.80;91.80;;;;;;5112239;28;20067;-76
2022/11/27 10:31:16;;;;;;;1.63;0.90;;;6.80;91.80;;;;;;5114403;28;20030;-75
2022/11/27 10:33:55;;;;;;;1.42;0.85;;;6.80;91.80;;;;;;5114422;28;20048;-75
2022/11/27 10:36:28;;;;;;;1.08;0.80;;;6.80;91.80;;;;;;5095632;28;20032;-76
2022/11/27 10:38:56;;;;;;;1.20;0.82;;;6.90;91.80;;;;;;5095841;28;20492;-76
2022/11/27 10:41:36;;;;;;;1.25;0.75;;;6.90;91.90;;;;;;5114025;28;20126;-76
2022/11/27 10:44:28;;;;;;;1.02;0.57;;;7.00;91.90;;;;;;5113640;28;20046;-76
2022/11/27 10:47:02;;;;;;;0.65;0.50;;;7.00;91.80;;;;;;5078698;28;20035;-76
2022/11/27 10:49:28;;;;;;;0.68;0.60;;;7.00;91.80;;;;;;5114094;28;20071;-76
2022/11/27 10:51:53;;;;;;;1.00;0.70;;;7.10;91.80;;;;;;5114216;28;20066;-76
2022/11/27 10:54:25;;;;;;;0.93;0.70;;;7.00;91.80;;;;;;5079088;28;20039;-76
2022/11/27 10:57:19;;;;;;;1.27;0.70;;;7.10;91.80;;;;;;5113949;28;20040;-76
2022/11/27 11:00:04;;;;;;;0.80;0.60;;;7.20;91.90;;;;;;5113958;28;20075;-76
2022/11/27 11:02:34;;;;;;;1.42;0.70;;;7.00;91.80;;;;;;5114111;28;20039;-76
2022/11/27 11:05:25;;;;;;;1.30;0.80;;;7.10;91.80;;;;;;5095422;28;20044;-76
2022/11/27 11:07:57;;;;;;;0.90;0.60;;;7.10;91.80;;;;;;5096087;28;20074;-76
2022/11/27 11:10:34;;;;;;;1.23;0.60;;;7.10;91.80;;;;;;5113884;28;20035;-76
2022/11/27 11:13:08;;;;;;;0.80;0.65;;;7.20;91.90;;;;;;5113877;28;20096;-76
2022/11/27 11:15:50;;;;;;;0.65;0.57;;;7.10;91.90;;;;;;5114319;28;20125;-76
2022/11/27 11:18:18;;;;;;;1.70;0.77;;;7.10;91.90;;;;;;5114199;28;20039;-76
2022/11/27 11:20:50;;;;;;;1.48;0.70;;;7.20;91.90;;;;;;5112181;28;20438;-76
2022/11/27 11:23:24;;;;;;;0.82;0.50;;;7.20;91.90;;;;;;5078484;28;20059;-76
2022/11/27 11:25:53;;;;;;;2.10;0.82;;;7.20;91.90;;;;;;5114116;28;20468;-76
2022/11/27 11:28:19;;;;;;;1.25;0.80;;;7.30;91.90;;;;;;5113576;28;20039;-76
2022/11/27 11:31:04;;;;;;;2.03;0.70;;;7.30;91.90;;;;;;5113297;28;20035;-76
2022/11/27 11:33:39;;;;;;;1.02;0.60;;;7.20;91.90;;;;;;5094333;28;20053;-76
2022/11/27 11:36:09;;;;;;;0.63;0.60;;;7.20;91.90;;;;;;5096601;28;20062;-76
2022/11/27 11:38:35;;;;;;;1.42;0.68;;;7.20;91.90;;;;;;5095738;28;20379;-77
2022/11/27 11:41:04;;;;;;;1.45;0.77;;;7.20;91.90;;;;;;5113827;28;20035;-76
2022/11/27 11:43:34;;;;;;;0.80;0.65;;;7.20;91.90;;;;;;5113262;28;20102;-76
2022/11/27 11:46:15;;;;;;;0.93;0.70;;;7.30;91.90;;;;;;5113864;28;20039;-76
2022/11/27 11:48:52;;;;;;;0.52;0.52;;;7.30;91.90;;;;;;5111800;28;20083;-77
2022/11/27 11:51:42;;;;;;;0.80;0.60;;;7.30;91.90;;;;;;5113703;28;20587;-76
2022/11/27 11:54:30;;;;;;;1.08;0.70;;;7.30;91.90;;;;;;5094095;28;20127;-76
2022/11/27 11:56:59;;;;;;;1.02;0.60;;;7.30;91.90;;;;;;5113113;28;20100;-76
2022/11/27 11:59:38;;;;;;;1.17;0.85;;;7.30;91.90;;;;;;5113030;28;20092;-76
2022/11/27 12:02:31;;;;;;;1.45;0.98;;;7.40;91.90;;;;;;5112890;28;20051;-76
2022/11/27 12:05:36;;;;;;;0.68;0.68;;;7.40;91.90;;;;;;5098801;28;20078;-76
2022/11/27 12:08:25;;;;;;;0.60;0.60;;;7.40;91.90;;;;;;5112685;28;20042;-76
2022/11/27 12:11:04;;;;;;;0.82;0.50;;;7.40;91.90;;;;;;5113515;28;20039;-76
2022/11/27 12:14:01;;;;;;;0.77;0.63;;;7.40;91.90;;;;;;5096452;28;20115;-76
2022/11/27 12:16:49;;;;;;;1.02;0.63;;;7.40;91.90;;;;;;5082750;28;20047;-76
2022/11/27 12:19:35;;;;;;;1.20;0.90;;;7.40;91.90;;;;;;5112957;28;20046;-76
2022/11/27 12:22:35;;;;;;;2.08;0.75;;;7.50;91.90;;;;;;5112587;28;20074;-76
2022/11/27 12:25:23;;;;;;;0.93;0.80;;;7.50;91.90;;;;;;5099947;28;20089;-77
2022/11/27 12:28:24;;;;;;;0.57;0.57;;;7.60;91.80;;;;;;5112495;28;20105;-76
2022/11/27 12:31:28;;;;;;;1.02;0.65;;;7.60;91.80;;;;;;5112511;28;20441;-76
2022/11/27 12:34:05;;;;;;;0.98;0.60;;;7.60;91.80;;;;;;5112462;28;20051;-77
2022/11/27 12:36:54;;;;;;;1.77;0.75;;;7.70;91.80;;;;;;5112513;28;20039;-76
2022/11/27 12:39:29;;;;;;;0.85;0.60;;;7.70;91.70;;;;;;5112453;28;20440;-76
2022/11/27 12:42:13;;;;;;;0.90;0.70;;;7.80;92.00;;;;;;5112419;28;20082;-77
2022/11/27 12:44:54;;;;;;;0.77;0.63;;;7.70;91.70;;;;;;5112583;28;20513;-76
2022/11/27 12:47:27;;;;;;;1.00;0.70;;;7.80;91.80;;;;;;5112242;28;20089;-76
2022/11/27 12:50:00;;;;;;;0.50;0.50;;;7.80;91.80;;;;;;5112337;28;20042;-77
2022/11/27 12:52:31;;;;;;;0.77;0.50;;;7.80;91.80;;;;;;5112507;28;20486;-76
2022/11/27 12:55:11;;;;;;;1.27;0.75;;;7.70;91.80;;;;;;5112940;28;20488;-76
2022/11/27 12:57:57;;;;;;;1.00;0.80;;;7.70;91.80;;;;;;5112361;28;20395;-76
2022/11/27 13:00:25;;;;;;;1.17;0.70;;;7.70;91.80;;;;;;5112283;28;20437;-76
2022/11/27 13:03:05;;;;;;;0.75;0.50;;;7.60;91.80;;;;;;5094040;28;20456;-76
2022/11/27 13:05:38;;;;;;;0.57;0.40;;;7.60;91.90;;;;;;5112559;28;20036;-76
2022/11/27 13:08:25;;;;;;;1.90;0.80;;;7.60;91.90;;;;;;5097835;28;20040;-76
2022/11/27 13:10:55;;;;;;;1.27;0.85;;;7.60;91.90;;;;;;5114241;28;20089;-76
2022/11/27 13:13:29;;;;;;;0.88;0.70;;;7.60;91.90;;;;;;5097611;28;20395;-76
2022/11/27 13:15:59;;;;;;;1.65;0.60;;;7.50;91.90;;;;;;5114733;28;20085;-76